Aérodrome :
LOGIN :

S'inscrire | Disclaimer

   EN    FR    IT 

 










Légende :    VFR   VFR Marginal   IFR   IFR Intensif   IFR Très Intensif
Visi : 
Plafond : 
>= 8 km
>= 3000ft
5 à 8 km
1000 à 3000 ft
1500m à 5 km
500 à 1000 ft
800 à 1500m
200 à 500 ft
< 800m
< 200 ft
Symboles :   Orages  Brouillard  Fortes neiges  Fortes précipitations  Vent > 20 kt
SIGMETs :   Divers  Orages  Givrage  Turbulence  Onde Orograph.  Cendres Volcan.







- Altitude de l'aérodrome : 645 ft
- Code IATA : DLE
- Voir les cartes d'approche


LFGJ - Dole Tavaux

DERNIER METAR :
  • 281130Z AUTO 29009KT 240V310 CAVOK 10/01 Q1017 TEMPO FEW040TCU

METARs EXPIRÉS :
  • 281100Z AUTO 31007KT 280V360 9999 FEW048 BKN068 OVC078 10/00 Q1017 TEMPO FEW040TCU
  • 281030Z AUTO 29008KT 260V350 9999 BKN048 11/02 Q1017 TEMPO FEW040TCU
  • 281000Z AUTO 33007KT 250V020 9999 FEW042 SCT049 10/01 Q1017 NOSIG
  • 280930Z AUTO 02006KT 300V080 9999 BKN039 BKN048 10/01 Q1017 NOSIG
  • 280900Z AUTO 36008KT 330V040 9999 FEW033 09/03 Q1017 NOSIG

TAF TAF LFGJ
Valide du 28 à 12h jusqu'au 28 à 21h UTC


281100Z 2812/2821 34007KT 9999 SCT030 SCT045
PROB30
TEMPO 2812/2815 -SHRA FEW040TCU
Pas de NOTAMs connus pour ce terrain.



MET'MAP, la Météo Aéronautique d'un coup d'oeil ! - Copyright ORBIFLY Décembre 2007 - Disclaimer

ORBIFLY MET'MAP TEAM :

Programmation & Développement : Alexandra Zaïnal
Conception & Développement : Baudouin d'Aumeries
Co-Programmation & Développement : Marc-Olivier Méhu
Soutien technique & logistique : Manuel Goepfert

Contact : metmap@orbifly.com




SOURCES & CREDITS :

   NOAA